Home > Products > Valid Products > MTR

000
SAZS31 NSTU 251701
MTRPPG
METAR NSTU 251653Z 17012KT 10SM SCT018 BKN045 OVC080 25/22 A2986 RMK
 RAE19 SLP113 T02530215=




000
SAZS31 NSTU 251700
MTRPPG
METAR NSTU 251554Z 16016KT 8SM -RA SCT018 BKN046 OVC080 25/22 A2986
RMK RAB50 SLP113 T02490220=




000
SAZS31 NSTU 251354
MTRPPG
METAR NSTU 251350Z 17008KT 7SM -SHRA SCT018 BKN036 OVC080 24/22
A2988 RMK SHRAB30 SLP120 T02370218=




000
SAZS31 NSTU 251300
MTRPPG
METAR NSTU 251253Z 16013KT 10SM SCT018 BKN040 OVC080 25/22 A2988 RMK
 SLP120 T02500220=




000
SAZS31 NSTU 251159
MTRPPG
METAR NSTU 251150Z 15012KT 10SM SCT024 BKN040 OVC090 25/21 A2990 RMK
 SLP125 60002 70003 8/87/ T02530213 10254 20244 56007=




000
SAZS31 NSTU 251053
MTRPPG
METAR NSTU 251050Z 17013KT 10SM SCT017 BKN040 OVC090 24/22 A2991 RMK
 SHRAB00E30 SLP129 T02440221 402780244=




000
SAZS31 NSTU 250954
MTRPPG
METAR NSTU 250951Z 15014KT 10SM SCT017 BKN040 OVC090 25/22 A2991 RMK
 SLP130 T02540220=




000
SAZS31 NSTU 250853
MTRPPG
METAR NSTU 250850Z 17013KT 10SM SCT017 BKN040 BKN100 25/23 A2992 RMK
SHRAE24 SLP132 60001 8/470 T02520225 52014=




000
SAZS31 NSTU 250754
MTRPPG
METAR NSTU 250750Z 17015KT 8SM -SHRA SCT015 BKN040 OVC100 25/23
A2991 RMK SLP129 T02500225=




000
SAZS31 NSTU 250654
MTRPPG
METAR NSTU 250650Z 17012KT 8SM -SHRA SCT015 BKN040 OVC100 25/23
A2989 RMK SHRAB05 SLP124 T02480228=




000
SAZS31 NSTU 250555
MTRPPG
METAR NSTU 250550Z 18014KT 10SM SCT016 BKN040 OVC100 25/23 A2988 RMK
SLP119 8/47/ T02500228 10278 20250 52014=




000
SAZS31 NSTU 250454
MTRPPG
METAR NSTU 250450Z 17015KT 10SM SCT015 BKN040 BKN100 26/23 A2986 RMK
SLP113 T02640225=




000
SAZS31 NSTU 250353
MTRPPG
METAR NSTU 250350Z 15013KT 11SM SCT016 BKN040 BKN100 26/23 A2985 RMK
SLP108 T02610227=




000
SAZS31 NSTU 250302
MTRPPG
METAR NSTU 250255Z 16013KT 12SM SCT018 BKN100 BKN200 27/22 A2984 RMK
SLP105 8/171 T02660223 56015=




000
SAZS31 NSTU 250158
MTRPPG
METAR NSTU 250152Z 16012KT 12SM SCT022 SCT100 BKN200 27/22 A2985 RMK
SLP108 T02700223=




000
SAZS31 NSTU 250056
MTRPPG
METAR NSTU 250053Z 16012KT 12SM SCT022 SCT100 BKN200 28/22 A2987 RMK
SLP115 T02780221=




000
SAZS31 NSTU 250007
MTRPPG
METAR NSTU 242350Z 17013KT 12SM SCT022 SCT040 BKN100 BKN200 27/22
A2988 RMK SLP120 60000 8/418 T02680221 10268 20252 57019=




000
SAZS31 NSTU 242254
MTRPPG
METAR NSTU 242250Z 16015KT 11SM SCT018TCU BKN040 OVC100 27/22 A2991
RMK TCU ALQDS SLP129 T02650222=




000
SAZS31 NSTU 242155
MTRPPG
METAR NSTU 242152Z 16016KT 11SM SCT016 BKN040 OVC100 27/22 A2993 RMK
SLP135 T02670223=




000
SAZS31 NSTU 242059
MTRPPG
METAR NSTU 242055Z 16016KT 11SM SCT016 BKN040 OVC100 27/22 A2994 RMK
RAE01 SLP139 60000 8/81/ T02670218 52015=




000
SAZS31 NSTU 241955
MTRPPG
METAR NSTU 241951Z 16015KT 11SM -RA SCT016 BKN040 OVC100 26/22 A2993
RMK SLP135 T02620220=




000
SAZS31 NSTU 241859
MTRPPG
METAR NSTU 241853Z 16018G21KT 11SM -SHRA SCT016TCU BKN040 OVC100
25/22 A2991 RMK TCU ALQDS SLP129 T02520224=





000
SAZS31 NSTU 241758
MTRPPG
METAR NSTU 241750Z 17017KT 11SM -SHRA SCT016 OVC040 25/23 A2989 RMK
SHRAB44 SLP124 60000 8/8// T02540229 10259 20252 51014=




000
SAZS31 NSTU 241706
MTRPPG
METAR NSTU 241658Z 16016KT 10SM SCT016 BKN040 OVC080 26/23 A2987 RMK
 SLP117 T02590228=




000
SAZS31 NSTU 241553
MTRPPG
METAR NSTU 241453Z 16017KT 10SM SCT016 BKN040 OVC080 26/23 A2985 RMK
 SLP110 60000 8/87/ T02580233 56007=




000
SAZS31 NSTU 241357
MTRPPG
METAR NSTU 241353Z 16020KT 10SM SCT016 BKN040 OVC080 25/23 A2986 RMK
 SHRAE10 SLP112 T02540234=




000
SAZS31 NSTU 241338
MTRPPG
METAR NSTU 241250Z 16016KT 8SM -SHRA SCT016 BKN040 OVC080 25/24
A2986 RMK SLP113 T02520236=




000
SAZS31 NSTU 241156
MTRPPG
METAR NSTU 241150Z 16015KT 7SM -SHRA SCT016 BKN040 OVC080 26/24
A2987 RMK SLP117 60005 70031 8/87/ T02560240 10262 20255 56002=




000
SAZS31 NSTU 241054
MTRPPG
METAR NSTU 241050Z 16017KT 7SM -SHRA SCT016 BKN040 OVC080 26/24
A2988 RMK SLP119 T02550240 403000255=




000
SAZS31 NSTU 240954
MTRPPG
METAR NSTU 240950Z 15017KT 8SM -SHRA SCT016 BKN040 OVC100 26/24 A2988
RMK SHRAB36 SLP119 T02570241=




000
SAZS31 NSTU 240856
MTRPPG
METAR NSTU 240851Z 17014KT 10SM SCT018 BKN040 BKN100 26/24 A2988
RMK SLP119 60000 8/470 T02620241 52019=




000
SAZS31 NSTU 240758
MTRPPG
METAR NSTU 240751Z 16015KT 10SM SCT018 BKN040 BKN100 26/24 A2987
RMK SHRAE32 SLP113 T02620243=




000
SAZS31 NSTU 240655
MTRPPG
METAR NSTU 240650Z 17017KT 9SM -SHRA SCT018TCU BKN040 OVC100 26/24 A2985
RMK TCU VC ALQDS SLP108 T02580244=




000
SAZS31 NSTU 240603
MTRPPG
METAR NSTU 240550Z 17012KT 8SM -SHRA SCT017TCU BKN040 OVC100 26/24 A2982
RMK TCU S SLP100 60026 8/87/ T02560244 10295 20256 52014=




000
SAZS31 NSTU 240459
MTRPPG
METAR NSTU 240450Z 18008KT 8SM -SHRA SCT017TCU BKN040 OVC100 27/25 A2981
RMK SHRAB40 TCU S SLP095 T02710245=




000
SAZS31 NSTU 240457
MTRPPG
METAR NSTU 240450Z 18008KT 08SM -SHRA SCT017TCU BKN040 OVC100 27/25 A2981
RMK SHRAB40 TCU S SLP095 T02710245=




000
SAZS31 NSTU 240355
MTRPPG
METAR NSTU 240350Z 28003KT 11SM SCT018 BKN040 BKN110 28/24 A2980
RMK SLP091 T02800241=




000
SAZS31 NSTU 240256
MTRPPG
METAR NSTU 240250Z 33006KT 12SM SCT018 BKN100 BKN200 29/24 A2978
RMK SLP086 60011 8/171 T02890242 56014=




000
SAZS31 NSTU 240200
MTRPPG
METAR NSTU 240152Z 16003KT 12SM SCT022 BKN100 BKN200 29/24 A2978
RMK SHRAE10 SLP085 T02940244=




000
SAZS31 NSTU 240058
MTRPPG
METAR NSTU 240053Z 31007KT 10SM -SHRA SCT014TCU BKN045 OVC100 27/25
A2981 RMK SHRAB01 TCU ALQDS SLP097 T02680246=




000
SAZS31 NSTU 240004
MTRPPG
METAR NSTU 232356Z 28007KT 12SM SCT019TCU SCT045 BKN100 BKN200 30/25
A2982 RMK TCU W-NW SLP100 8/478 T02950246 10300 20267 57017=




000
SAZS31 NSTU 232257
MTRPPG
METAR NSTU 232254Z 33011KT 12SM SCT022 BKN100 30/24 A2984 RMK SLP105
T03000241=




000
SAZS31 NSTU 232154
MTRPPG
METAR NSTU 232150Z 31009KT 12SM SCT019TCU BKN050 BKN100 28/24 A2986
RMK TCU NW-NE SLP112 T02820236=




000
SAZS31 NSTU 232100
MTRPPG
METAR NSTU 232056Z 31014KT 10SM SCT017TCU BKN050 BKN100 29/24 A2987
RMK TCU N-E SLP117 8/470 T02870238 52022=




000
SAZS31 NSTU 232016
MTRPPG
METAR NSTU 231950Z 32013KT 12SM SCT017TCU BKN050 BKN100 28/24 A2986
RMK TCU NW-NE SLP113 T02810238=




000
SAZS31 NSTU 231853
MTRPPG
METAR NSTU 231850Z 33009KT 11SM SCT018 BKN050 OVC100 27/23 A2984 RMK
SLP107 T02670232=




000
SAZS31 NSTU 231757
MTRPPG
METAR NSTU 231750Z 33006KT 10SM SCT018 BKN050 OVC100 27/24 A2981 RMK
 SLP095 60000 8/87/ T02730235 10281 20273 51014=




000
SAZS31 NSTU 231657
MTRPPG
METAR NSTU 231653Z 31009KT 10SM SCT018 OVC100 28/23 A2980 RMK SLP091
 T02810234=




000
SAZS31 NSTU 231555
MTRPPG
METAR NSTU 231552Z 33012KT 10SM SCT020 OVC100 28/23 A2978 RMK SLP085
 T02810231=




000
SAZS31 NSTU 231504
MTRPPG
METAR NSTU 231450Z 34014KT 10SM SCT022 BKN100 28/23 A2977 RMK SLP081
 60000 8/170 T02800233 56008=




000
SAZS31 NSTU 231353
MTRPPG
METAR NSTU 231350Z 33013KT 10SM SCT022 BKN100 28/23 A2977 RMK SLP081
 T02790228=




000
SAZS31 NSTU 231256
MTRPPG
METAR NSTU 231251Z 34014KT 10SM SCT020 OVC100 27/24 A2978 RMK
RAB20E40 SLP085 T02740235=




000
SAZS31 NSTU 231156
MTRPPG
METAR NSTU 231150Z 33010KT 10SM SCT024 OVC100 28/23 A2979 RMK SLP090
 8/17/ T02810234 10284 20281 56005=




000
SAZS31 NSTU 231053
MTRPPG
METAR NSTU 231050Z 33014KT 10SM SCT022 BKN100 28/23 A2981 RMK SLP095
 T02820230 403020259=




000
SAZS31 NSTU 230957
MTRPPG
METAR NSTU 230950Z 34018G26KT 10SM SCT019 BKN100 28/24 A2980 RMK PK
WND 34026/28 SLP093 T02840235=




000
SAZS31 NSTU 230855
MTRPPG
METAR NSTU 230851Z 34015G23KT 10SM SCT019 BKN100 28/23 A2981 RMK
SLP095 8/170 T02830233 52014=




000
SAZS31 NSTU 230759
MTRPPG
METAR NSTU 230751Z 33014G24KT 10SM SCT021 BKN110 28/23 A2981 RMK
SLP097 T02820233=




000
SAZS31 NSTU 230657
MTRPPG
METAR NSTU 230650Z 35010KT 12SM FEW026 SCT110 28/23 A2979 RMK
SLP088 T02810233=




000
SAZS31 NSTU 230624
MTRPPG
METAR NSTU 230550Z 34012KT 10SM SCT018 BKN110 BKN250 28/23 A2977 RMK
SLP081 8/171 T02810230 103012 20281 52008=




000
SAZS31 NSTU 230454
MTRPPG
METAR NSTU 230450Z 34009KT 10SM SCT020 BKN110 BKN250 28/24 A2976 RMK
SLP078 T02840236=




000
SAZS31 NSTU 230355
MTRPPG
METAR NSTU 230352Z 34010KT 12SM SCT021 BKN110 29/23 A2975 RMK SLP075
T02920231=




000
SAZS31 NSTU 230355
MTRPPG
METAR NSTU 230352Z 34010KT 12SM SCT021 BKN110 29/23 A2975 RMK SLP075
T02920231=




000
SAZS31 NSTU 230256
MTRPPG
METAR NSTU 230251Z 33011KT 12SM FEW025 SCT100 SCT200 30/23 A2974 RMK
SLP073 8/141 T02990234 57015=




000
SAZS31 NSTU 230151
MTRPPG
METAR NSTU 230150Z 03011KT 12SM FEW025 SCT100 SCT200 30/23 A2975 RMK
SLP075 T02960231=




000
SAZS31 NSTU 230058
MTRPPG
METAR NSTU 230052Z 02014KT 12SM FEW025 SCT100 BKN200 30/23 A2976 RMK
SLP080 T03020229=




000
SAZS31 NSTU 222359
MTRPPG
METAR NSTU 222351Z 04008KT 12SM SCT025 SCT100 30/23 A2979 RMK SLP088
8/170 T02960230 10301 20272 57020=




000
SAZS31 NSTU 222257
MTRPPG
METAR NSTU 222254Z 01012KT 12SM SCT025 SCT100 30/23 A2981 RMK SLP095
T02980232=




000
SAZS31 NSTU 222200
MTRPPG
METAR NSTU 222156Z 01008KT 12SM SCT025 BKN100 BKN200 30/23 A2983 RMK
SLP102 T03010233=




000
SAZS31 NSTU 222052
MTRPPG
METAR NSTU 222050Z 36009KT 12SM FEW025 SCT100 SCT200 30/23 A2985 RMK
SLP108 8/141 T02950231 52012=




000
SAZS31 NSTU 221959
MTRPPG
METAR NSTU 221955Z 01008KT 12SM SCT025TCU SCT050 BKN100 29/23 A2984
RMK TCU N-NE SLP107 T02870233=




000
SAZS31 NSTU 221855
MTRPPG
METAR NSTU 221851Z 03006KT 12SM SCT025 28/23 A2983 RMK SLP103
T02780230=




000
SAZS31 NSTU 221755
MTRPPG
METAR NSTU 221750Z 02005KT 12SM SCT025 27/23 A2981 RMK SLP097 8/100
T02720227 10272 20261 51012=




    US Dept of Commerce
    National Oceanic and Atmospheric Administration
    National Weather Service
    1325 East West Highway
    Silver Spring, MD 20910
    Page Author: NWS Internet Services Team
Disclaimer
Information Quality
Credits
Glossary
Privacy Policy
Freedom of Information Act (FOIA)
About Us
Career Opportunities